sensor_id;sensor_type;location;lat;lon;timestamp;pressure;altitude;pressure_sealevel;temperature;humidity
59757;BME280;45631;51.962;5.974;2023-09-07T00:00:39;101834.75;;;19.52;100.00
59757;BME280;45631;51.962;5.974;2023-09-07T00:03:09;101826.69;;;19.42;100.00
59757;BME280;45631;51.962;5.974;2023-09-07T00:05:38;101834.00;;;19.40;100.00
59757;BME280;45631;51.962;5.974;2023-09-07T00:08:07;101827.50;;;19.33;100.00
59757;BME280;45631;51.962;5.974;2023-09-07T00:10:35;101827.13;;;19.38;100.00
59757;BME280;45631;51.962;5.974;2023-09-07T00:13:04;101822.31;;;19.32;100.00
59757;BME280;45631;51.962;5.974;2023-09-07T00:15:36;101824.97;;;19.32;100.00
59757;BME280;45631;51.962;5.974;2023-09-07T00:18:05;101827.22;;;19.27;100.00
59757;BME280;45631;51.962;5.974;2023-09-07T00:20:35;101819.31;;;19.25;100.00
59757;BME280;45631;51.962;5.974;2023-09-07T00:23:04;101829.44;;;19.21;100.00
59757;BME280;45631;51.962;5.974;2023-09-07T00:25:33;101830.41;;;19.20;100.00
59757;BME280;45631;51.962;5.974;2023-09-07T00:28:05;101823.91;;;19.13;100.00
59757;BME280;45631;51.962;5.974;2023-09-07T00:30:33;101811.97;;;19.07;100.00
59757;BME280;45631;51.962;5.974;2023-09-07T00:33:02;101818.09;;;18.98;100.00
59757;BME280;45631;51.962;5.974;2023-09-07T00:35:31;101817.50;;;18.95;100.00
59757;BME280;45631;51.962;5.974;2023-09-07T00:38:01;101816.66;;;18.94;100.00
59757;BME280;45631;51.962;5.974;2023-09-07T00:40:30;101810.03;;;18.88;100.00
59757;BME280;45631;51.962;5.974;2023-09-07T00:42:59;101809.09;;;18.78;100.00
59757;BME280;45631;51.962;5.974;2023-09-07T00:45:28;101810.78;;;18.79;100.00
59757;BME280;45631;51.962;5.974;2023-09-07T00:47:56;101813.81;;;18.74;100.00
59757;BME280;45631;51.962;5.974;2023-09-07T00:50:25;101806.22;;;18.70;100.00
59757;BME280;45631;51.962;5.974;2023-09-07T00:52:54;101812.47;;;18.59;100.00
59757;BME280;45631;51.962;5.974;2023-09-07T00:55:24;101805.31;;;18.59;100.00
59757;BME280;45631;51.962;5.974;2023-09-07T00:57:53;101813.00;;;18.53;100.00
59757;BME280;45631;51.962;5.974;2023-09-07T01:00:23;101808.75;;;18.50;100.00
59757;BME280;45631;51.962;5.974;2023-09-07T01:02:51;101801.53;;;18.41;100.00
59757;BME280;45631;51.962;5.974;2023-09-07T01:05:21;101797.03;;;18.41;100.00
59757;BME280;45631;51.962;5.974;2023-09-07T01:07:56;101799.97;;;18.38;100.00
59757;BME280;45631;51.962;5.974;2023-09-07T01:10:27;101803.34;;;18.40;100.00
59757;BME280;45631;51.962;5.974;2023-09-07T01:12:55;101800.03;;;18.27;100.00
59757;BME280;45631;51.962;5.974;2023-09-07T01:15:24;101795.94;;;18.23;100.00
59757;BME280;45631;51.962;5.974;2023-09-07T01:17:53;101796.63;;;18.25;100.00
59757;BME280;45631;51.962;5.974;2023-09-07T01:20:36;101801.63;;;18.18;100.00
59757;BME280;45631;51.962;5.974;2023-09-07T01:23:09;101804.88;;;18.22;100.00
59757;BME280;45631;51.962;5.974;2023-09-07T01:25:40;101798.13;;;18.18;100.00
59757;BME280;45631;51.962;5.974;2023-09-07T01:28:09;101800.44;;;18.11;100.00
59757;BME280;45631;51.962;5.974;2023-09-07T01:30:37;101793.41;;;18.10;100.00
59757;BME280;45631;51.962;5.974;2023-09-07T01:33:06;101795.13;;;18.11;100.00
59757;BME280;45631;51.962;5.974;2023-09-07T01:35:36;101797.19;;;18.07;100.00
59757;BME280;45631;51.962;5.974;2023-09-07T01:38:06;101790.41;;;18.03;100.00
59757;BME280;45631;51.962;5.974;2023-09-07T01:40:36;101792.03;;;17.95;100.00
59757;BME280;45631;51.962;5.974;2023-09-07T01:43:05;101784.38;;;17.90;100.00
59757;BME280;45631;51.962;5.974;2023-09-07T01:45:33;101788.97;;;17.99;100.00
59757;BME280;45631;51.962;5.974;2023-09-07T01:48:02;101796.72;;;17.91;100.00
59757;BME280;45631;51.962;5.974;2023-09-07T01:50:31;101799.88;;;17.85;100.00
59757;BME280;45631;51.962;5.974;2023-09-07T01:53:00;101795.78;;;17.81;100.00
59757;BME280;45631;51.962;5.974;2023-09-07T01:55:30;101797.84;;;17.77;100.00
59757;BME280;45631;51.962;5.974;2023-09-07T01:58:01;101790.47;;;17.81;100.00
59757;BME280;45631;51.962;5.974;2023-09-07T02:00:30;101798.66;;;17.78;100.00
59757;BME280;45631;51.962;5.974;2023-09-07T02:03:00;101796.00;;;17.78;100.00
59757;BME280;45631;51.962;5.974;2023-09-07T02:05:29;101796.13;;;17.76;100.00
59757;BME280;45631;51.962;5.974;2023-09-07T02:07:59;101797.00;;;17.77;100.00
59757;BME280;45631;51.962;5.974;2023-09-07T02:10:28;101804.38;;;17.73;100.00
59757;BME280;45631;51.962;5.974;2023-09-07T02:13:02;101793.75;;;17.73;100.00
59757;BME280;45631;51.962;5.974;2023-09-07T02:15:31;101793.50;;;17.65;100.00
59757;BME280;45631;51.962;5.974;2023-09-07T02:18:00;101798.09;;;17.74;100.00
59757;BME280;45631;51.962;5.974;2023-09-07T02:20:31;101787.31;;;17.76;100.00
59757;BME280;45631;51.962;5.974;2023-09-07T02:22:59;101794.22;;;17.67;100.00
59757;BME280;45631;51.962;5.974;2023-09-07T02:25:28;101790.00;;;17.76;100.00
59757;BME280;45631;51.962;5.974;2023-09-07T02:27:57;101790.59;;;17.68;100.00
59757;BME280;45631;51.962;5.974;2023-09-07T02:30:28;101788.81;;;17.68;100.00
59757;BME280;45631;51.962;5.974;2023-09-07T02:32:57;101785.91;;;17.60;100.00
59757;BME280;45631;51.962;5.974;2023-09-07T02:35:25;101787.59;;;17.61;100.00
59757;BME280;45631;51.962;5.974;2023-09-07T02:37:54;101786.63;;;17.62;100.00
59757;BME280;45631;51.962;5.974;2023-09-07T02:40:22;101792.41;;;17.67;100.00
59757;BME280;45631;51.962;5.974;2023-09-07T02:42:51;101789.41;;;17.61;100.00
59757;BME280;45631;51.962;5.974;2023-09-07T02:45:19;101796.56;;;17.60;100.00
59757;BME280;45631;51.962;5.974;2023-09-07T02:47:49;101792.53;;;17.54;100.00
59757;BME280;45631;51.962;5.974;2023-09-07T02:50:19;101796.19;;;17.53;100.00
59757;BME280;45631;51.962;5.974;2023-09-07T02:52:48;101792.53;;;17.54;100.00
59757;BME280;45631;51.962;5.974;2023-09-07T02:55:18;101791.47;;;17.46;100.00
59757;BME280;45631;51.962;5.974;2023-09-07T02:57:47;101798.00;;;17.42;100.00
59757;BME280;45631;51.962;5.974;2023-09-07T03:00:16;101792.94;;;17.38;100.00
59757;BME280;45631;51.962;5.974;2023-09-07T03:02:44;101793.91;;;17.37;100.00
59757;BME280;45631;51.962;5.974;2023-09-07T03:05:15;101798.72;;;17.32;100.00
59757;BME280;45631;51.962;5.974;2023-09-07T03:07:45;101799.81;;;17.30;100.00
59757;BME280;45631;51.962;5.974;2023-09-07T03:10:13;101795.44;;;17.29;100.00
59757;BME280;45631;51.962;5.974;2023-09-07T03:12:42;101801.41;;;17.21;100.00
59757;BME280;45631;51.962;5.974;2023-09-07T03:15:11;101803.31;;;17.19;100.00
59757;BME280;45631;51.962;5.974;2023-09-07T03:17:40;101796.03;;;17.10;100.00
59757;BME280;45631;51.962;5.974;2023-09-07T03:20:11;101802.81;;;17.14;100.00
59757;BME280;45631;51.962;5.974;2023-09-07T03:22:43;101796.91;;;17.10;100.00
59757;BME280;45631;51.962;5.974;2023-09-07T03:25:13;101798.69;;;17.10;100.00
59757;BME280;45631;51.962;5.974;2023-09-07T03:27:42;101796.28;;;17.06;100.00
59757;BME280;45631;51.962;5.974;2023-09-07T03:30:11;101789.91;;;17.09;100.00
59757;BME280;45631;51.962;5.974;2023-09-07T03:32:39;101785.66;;;17.06;100.00
59757;BME280;45631;51.962;5.974;2023-09-07T03:35:08;101789.28;;;17.05;100.00
59757;BME280;45631;51.962;5.974;2023-09-07T03:37:37;101789.28;;;17.05;100.00
59757;BME280;45631;51.962;5.974;2023-09-07T03:40:08;101782.50;;;17.01;100.00
59757;BME280;45631;51.962;5.974;2023-09-07T03:42:37;101787.25;;;16.98;100.00
59757;BME280;45631;51.962;5.974;2023-09-07T03:45:06;101786.50;;;16.96;100.00
59757;BME280;45631;51.962;5.974;2023-09-07T03:47:35;101784.47;;;16.99;100.00
59757;BME280;45631;51.962;5.974;2023-09-07T03:50:04;101782.28;;;17.04;100.00
59757;BME280;45631;51.962;5.974;2023-09-07T03:52:33;101781.81;;;16.99;100.00
59757;BME280;45631;51.962;5.974;2023-09-07T03:55:03;101787.25;;;16.98;100.00
59757;BME280;45631;51.962;5.974;2023-09-07T03:57:33;101781.94;;;16.98;100.00
59757;BME280;45631;51.962;5.974;2023-09-07T04:00:03;101781.94;;;16.98;100.00
59757;BME280;45631;51.962;5.974;2023-09-07T04:02:35;101782.25;;;16.93;100.00
59757;BME280;45631;51.962;5.974;2023-09-07T04:05:04;101787.94;;;17.00;100.00
59757;BME280;45631;51.962;5.974;2023-09-07T04:07:33;101791.94;;;16.94;100.00
59757;BME280;45631;51.962;5.974;2023-09-07T04:10:02;101787.47;;;16.95;100.00
59757;BME280;45631;51.962;5.974;2023-09-07T04:12:32;101782.16;;;16.95;100.00
59757;BME280;45631;51.962;5.974;2023-09-07T04:15:01;101794.84;;;17.02;100.00
59757;BME280;45631;51.962;5.974;2023-09-07T04:17:30;101786.00;;;16.90;100.00
59757;BME280;45631;51.962;5.974;2023-09-07T04:20:08;101779.72;;;16.92;100.00
59757;BME280;45631;51.962;5.974;2023-09-07T04:22:39;101788.56;;;16.92;100.00
59757;BME280;45631;51.962;5.974;2023-09-07T04:25:08;101788.66;;;16.90;100.00
59757;BME280;45631;51.962;5.974;2023-09-07T04:27:38;101783.06;;;16.82;100.00
59757;BME280;45631;51.962;5.974;2023-09-07T04:30:08;101784.50;;;16.75;100.00
59757;BME280;45631;51.962;5.974;2023-09-07T04:32:37;101789.44;;;16.68;100.00
59757;BME280;45631;51.962;5.974;2023-09-07T04:35:06;101786.56;;;16.71;100.00
59757;BME280;45631;51.962;5.974;2023-09-07T04:37:35;101785.31;;;16.64;100.00
59757;BME280;45631;51.962;5.974;2023-09-07T04:40:06;101780.00;;;16.64;100.00
59757;BME280;45631;51.962;5.974;2023-09-07T04:42:34;101786.00;;;16.55;100.00
59757;BME280;45631;51.962;5.974;2023-09-07T04:45:05;101776.81;;;16.48;100.00
59757;BME280;45631;51.962;5.974;2023-09-07T04:47:34;101782.25;;;16.46;100.00
59757;BME280;45631;51.962;5.974;2023-09-07T04:50:05;101782.88;;;16.50;100.00
59757;BME280;45631;51.962;5.974;2023-09-07T04:52:34;101781.81;;;16.52;100.00
59757;BME280;45631;51.962;5.974;2023-09-07T04:55:03;101787.72;;;16.56;100.00
59757;BME280;45631;51.962;5.974;2023-09-07T04:57:32;101793.88;;;16.56;100.00
59757;BME280;45631;51.962;5.974;2023-09-07T05:00:01;101795.28;;;16.49;100.00
59757;BME280;45631;51.962;5.974;2023-09-07T05:02:32;101798.69;;;16.51;100.00
59757;BME280;45631;51.962;5.974;2023-09-07T05:05:06;101794.22;;;16.52;100.00
59757;BME280;45631;51.962;5.974;2023-09-07T05:07:34;101799.66;;;16.50;100.00
59757;BME280;45631;51.962;5.974;2023-09-07T05:10:04;101798.81;;;16.50;100.00
59757;BME280;45631;51.962;5.974;2023-09-07T05:12:34;101799.28;;;16.55;100.00
59757;BME280;45631;51.962;5.974;2023-09-07T05:15:03;101799.66;;;16.50;100.00
59757;BME280;45631;51.962;5.974;2023-09-07T05:17:35;101804.00;;;16.51;100.00
59757;BME280;45631;51.962;5.974;2023-09-07T05:20:05;101808.34;;;16.52;100.00
59757;BME280;45631;51.962;5.974;2023-09-07T05:22:33;101806.66;;;16.51;100.00
59757;BME280;45631;51.962;5.974;2023-09-07T05:25:05;101812.19;;;16.48;100.00
59757;BME280;45631;51.962;5.974;2023-09-07T05:27:34;101810.16;;;16.52;100.00
59757;BME280;45631;51.962;5.974;2023-09-07T05:30:04;101804.84;;;16.52;100.00
59757;BME280;45631;51.962;5.974;2023-09-07T05:32:32;101808.94;;;16.56;100.00
59757;BME280;45631;51.962;5.974;2023-09-07T05:35:03;101816.09;;;16.55;100.00
59757;BME280;45631;51.962;5.974;2023-09-07T05:37:34;101814.38;;;16.54;100.00
59757;BME280;45631;51.962;5.974;2023-09-07T05:40:03;101815.72;;;16.60;100.00
59757;BME280;45631;51.962;5.974;2023-09-07T05:42:34;101818.63;;;16.57;100.00
59757;BME280;45631;51.962;5.974;2023-09-07T05:45:03;101820.19;;;16.60;100.00
59757;BME280;45631;51.962;5.974;2023-09-07T05:47:32;101820.09;;;16.61;100.00
59757;BME280;45631;51.962;5.974;2023-09-07T05:50:02;101823.56;;;16.62;100.00
59757;BME280;45631;51.962;5.974;2023-09-07T05:52:31;101823.56;;;16.62;100.00
59757;BME280;45631;51.962;5.974;2023-09-07T05:55:00;101827.09;;;16.62;100.00
59757;BME280;45631;51.962;5.974;2023-09-07T05:57:28;101826.09;;;16.63;100.00
59757;BME280;45631;51.962;5.974;2023-09-07T05:59:57;101826.50;;;16.70;100.00
59757;BME280;45631;51.962;5.974;2023-09-07T06:02:26;101832.19;;;16.77;100.00
59757;BME280;45631;51.962;5.974;2023-09-07T06:04:54;101841.03;;;16.77;100.00
59757;BME280;45631;51.962;5.974;2023-09-07T06:07:24;101842.59;;;16.80;100.00
59757;BME280;45631;51.962;5.974;2023-09-07T06:09:53;101845.16;;;16.81;100.00
59757;BME280;45631;51.962;5.974;2023-09-07T06:12:22;101847.22;;;16.89;100.00
59757;BME280;45631;51.962;5.974;2023-09-07T06:14:50;101853.78;;;16.96;100.00
59757;BME280;45631;51.962;5.974;2023-09-07T06:17:19;101859.34;;;17.04;100.00
59757;BME280;45631;51.962;5.974;2023-09-07T06:19:47;101854.63;;;17.08;100.00
59757;BME280;45631;51.962;5.974;2023-09-07T06:22:16;101857.66;;;17.15;100.00
59757;BME280;45631;51.962;5.974;2023-09-07T06:24:46;101853.59;;;17.22;100.00
59757;BME280;45631;51.962;5.974;2023-09-07T06:27:14;101856.00;;;17.36;100.00
59757;BME280;45631;51.962;5.974;2023-09-07T06:29:43;101854.31;;;17.35;100.00
59757;BME280;45631;51.962;5.974;2023-09-07T06:32:11;101859.41;;;17.38;100.00
59757;BME280;45631;51.962;5.974;2023-09-07T06:34:40;101865.09;;;17.45;100.00
59757;BME280;45631;51.962;5.974;2023-09-07T06:37:09;101859.78;;;17.56;100.00
59757;BME280;45631;51.962;5.974;2023-09-07T06:39:37;101864.50;;;17.64;100.00
59757;BME280;45631;51.962;5.974;2023-09-07T06:42:07;101861.19;;;17.72;100.00
59757;BME280;45631;51.962;5.974;2023-09-07T06:44:36;101867.50;;;17.82;100.00
59757;BME280;45631;51.962;5.974;2023-09-07T06:47:05;101874.25;;;17.86;100.00
59757;BME280;45631;51.962;5.974;2023-09-07T06:49:34;101870.28;;;17.92;100.00
59757;BME280;45631;51.962;5.974;2023-09-07T06:52:04;101868.69;;;18.01;100.00
59757;BME280;45631;51.962;5.974;2023-09-07T06:54:32;101874.13;;;18.11;100.00
59757;BME280;45631;51.962;5.974;2023-09-07T06:57:01;101872.06;;;18.26;100.00
59757;BME280;45631;51.962;5.974;2023-09-07T06:59:31;101876.38;;;18.27;100.00
59757;BME280;45631;51.962;5.974;2023-09-07T07:02:00;101873.69;;;18.38;100.00
59757;BME280;45631;51.962;5.974;2023-09-07T07:04:32;101867.50;;;18.49;100.00
59757;BME280;45631;51.962;5.974;2023-09-07T07:07:01;101872.91;;;18.58;100.00
59757;BME280;45631;51.962;5.974;2023-09-07T07:09:31;101860.88;;;18.64;100.00
59757;BME280;45631;51.962;5.974;2023-09-07T07:12:00;101867.00;;;18.76;100.00
59757;BME280;45631;51.962;5.974;2023-09-07T07:14:30;101875.16;;;18.96;100.00
59757;BME280;45631;51.962;5.974;2023-09-07T07:16:59;101871.59;;;19.06;100.00
59757;BME280;45631;51.962;5.974;2023-09-07T07:19:29;101871.78;;;19.15;100.00
59757;BME280;45631;51.962;5.974;2023-09-07T07:21:57;101877.16;;;19.24;100.00
59757;BME280;45631;51.962;5.974;2023-09-07T07:24:26;101876.69;;;19.40;100.00
59757;BME280;45631;51.962;5.974;2023-09-07T07:26:54;101874.88;;;19.51;100.00
59757;BME280;45631;51.962;5.974;2023-09-07T07:29:23;101877.06;;;19.67;100.00
59757;BME280;45631;51.962;5.974;2023-09-07T07:31:53;101873.50;;;19.87;100.00
59757;BME280;45631;51.962;5.974;2023-09-07T07:34:21;101881.41;;;19.99;100.00
59757;BME280;45631;51.962;5.974;2023-09-07T07:36:50;101873.84;;;20.14;100.00
59757;BME280;45631;51.962;5.974;2023-09-07T07:39:18;101879.91;;;20.25;100.00
59757;BME280;45631;51.962;5.974;2023-09-07T07:41:47;101879.53;;;20.40;100.00
59757;BME280;45631;51.962;5.974;2023-09-07T07:44:16;101883.03;;;20.60;100.00
59757;BME280;45631;51.962;5.974;2023-09-07T07:46:44;101890.66;;;20.74;100.00
59757;BME280;45631;51.962;5.974;2023-09-07T07:49:14;101891.63;;;20.93;100.00
59757;BME280;45631;51.962;5.974;2023-09-07T07:51:43;101886.81;;;21.06;100.00
59757;BME280;45631;51.962;5.974;2023-09-07T07:54:11;101890.44;;;21.25;100.00
59757;BME280;45631;51.962;5.974;2023-09-07T07:56:40;101890.38;;;21.44;100.00
59757;BME280;45631;51.962;5.974;2023-09-07T07:59:08;101891.03;;;21.66;100.00
59757;BME280;45631;51.962;5.974;2023-09-07T08:01:37;101887.41;;;21.85;100.00
59757;BME280;45631;51.962;5.974;2023-09-07T08:04:05;101885.78;;;22.02;100.00
59757;BME280;45631;51.962;5.974;2023-09-07T08:06:36;101882.66;;;22.25;100.00
59757;BME280;45631;51.962;5.974;2023-09-07T08:09:04;101882.84;;;22.41;100.00
59757;BME280;45631;51.962;5.974;2023-09-07T08:11:33;101865.47;;;22.64;100.00
59757;BME280;45631;51.962;5.974;2023-09-07T08:14:01;101876.22;;;22.90;100.00
59757;BME280;45631;51.962;5.974;2023-09-07T08:16:30;101877.31;;;23.05;100.00
59757;BME280;45631;51.962;5.974;2023-09-07T08:18:59;101879.53;;;23.28;100.00
59757;BME280;45631;51.962;5.974;2023-09-07T08:21:27;101877.44;;;23.48;100.00
59757;BME280;45631;51.962;5.974;2023-09-07T08:23:57;101867.16;;;23.70;100.00
59757;BME280;45631;51.962;5.974;2023-09-07T08:26:27;101871.44;;;23.89;100.00
59757;BME280;45631;51.962;5.974;2023-09-07T08:28:55;101865.78;;;24.08;100.00
59757;BME280;45631;51.962;5.974;2023-09-07T08:31:23;101863.28;;;24.32;100.00
59757;BME280;45631;51.962;5.974;2023-09-07T08:33:53;101863.47;;;24.46;100.00
59757;BME280;45631;51.962;5.974;2023-09-07T08:36:22;101862.28;;;24.57;100.00
59757;BME280;45631;51.962;5.974;2023-09-07T08:38:51;101855.94;;;24.75;100.00
59757;BME280;45631;51.962;5.974;2023-09-07T08:41:23;101852.53;;;24.89;100.00
59757;BME280;45631;51.962;5.974;2023-09-07T08:43:53;101853.88;;;25.02;100.00
59757;BME280;45631;51.962;5.974;2023-09-07T08:46:22;101854.84;;;25.17;100.00
59757;BME280;45631;51.962;5.974;2023-09-07T08:48:51;101845.56;;;25.28;100.00
59757;BME280;45631;51.962;5.974;2023-09-07T08:51:24;101851.91;;;25.52;100.00
59757;BME280;45631;51.962;5.974;2023-09-07T08:53:55;101848.13;;;25.69;100.00
59757;BME280;45631;51.962;5.974;2023-09-07T08:56:25;101853.88;;;25.97;100.00
59757;BME280;45631;51.962;5.974;2023-09-07T08:58:54;101854.25;;;26.18;100.00
59757;BME280;45631;51.962;5.974;2023-09-07T09:01:22;101849.03;;;26.39;100.00
59757;BME280;45631;51.962;5.974;2023-09-07T09:03:51;101851.06;;;26.60;100.00
59757;BME280;45631;51.962;5.974;2023-09-07T09:06:21;101837.50;;;26.69;100.00
59757;BME280;45631;51.962;5.974;2023-09-07T09:08:51;101843.59;;;26.86;100.00
59757;BME280;45631;51.962;5.974;2023-09-07T09:11:21;101847.19;;;27.01;100.00
59757;BME280;45631;51.962;5.974;2023-09-07T09:13:52;101843.53;;;27.09;100.00
59757;BME280;45631;51.962;5.974;2023-09-07T09:16:21;101839.16;;;27.38;100.00
59757;BME280;45631;51.962;5.974;2023-09-07T09:18:50;101846.31;;;27.60;100.00
59757;BME280;45631;51.962;5.974;2023-09-07T09:21:19;101841.78;;;27.82;100.00
59757;BME280;45631;51.962;5.974;2023-09-07T09:23:49;101832.53;;;28.07;100.00
59757;BME280;45631;51.962;5.974;2023-09-07T09:26:19;101831.25;;;28.24;100.00
59757;BME280;45631;51.962;5.974;2023-09-07T09:28:47;101827.66;;;28.45;100.00
59757;BME280;45631;51.962;5.974;2023-09-07T09:31:19;101823.22;;;28.59;100.00
59757;BME280;45631;51.962;5.974;2023-09-07T09:33:49;101827.56;;;28.82;100.00
59757;BME280;45631;51.962;5.974;2023-09-07T09:36:19;101825.22;;;29.07;100.00
59757;BME280;45631;51.962;5.974;2023-09-07T09:38:49;101825.47;;;29.12;94.27
59757;BME280;45631;51.962;5.974;2023-09-07T09:41:20;101821.50;;;29.15;84.60
59757;BME280;45631;51.962;5.974;2023-09-07T09:43:49;101821.19;;;29.25;83.91
59757;BME280;45631;51.962;5.974;2023-09-07T09:46:21;101816.66;;;29.39;82.17
59757;BME280;45631;51.962;5.974;2023-09-07T09:48:50;101815.91;;;29.23;84.03
59757;BME280;45631;51.962;5.974;2023-09-07T09:51:20;101806.28;;;29.56;81.98
59757;BME280;45631;51.962;5.974;2023-09-07T09:53:50;101808.63;;;29.72;79.46
59757;BME280;45631;51.962;5.974;2023-09-07T09:56:19;101811.72;;;29.56;77.17
59757;BME280;45631;51.962;5.974;2023-09-07T09:58:48;101803.78;;;29.54;78.78
59757;BME280;45631;51.962;5.974;2023-09-07T10:01:17;101800.50;;;29.79;80.12
59757;BME280;45631;51.962;5.974;2023-09-07T10:03:48;101795.78;;;30.21;76.62
59757;BME280;45631;51.962;5.974;2023-09-07T10:06:19;101806.44;;;30.29;76.47
59757;BME280;45631;51.962;5.974;2023-09-07T10:08:58;101800.56;;;29.86;72.84
59757;BME280;45631;51.962;5.974;2023-09-07T10:11:27;101794.50;;;29.83;72.14
59757;BME280;45631;51.962;5.974;2023-09-07T10:13:59;101793.91;;;30.01;73.24
59757;BME280;45631;51.962;5.974;2023-09-07T10:16:41;101787.88;;;29.93;72.55
59757;BME280;45631;51.962;5.974;2023-09-07T10:19:19;101788.50;;;30.15;73.77
59757;BME280;45631;51.962;5.974;2023-09-07T10:21:48;101779.94;;;30.31;72.76
59757;BME280;45631;51.962;5.974;2023-09-07T10:24:24;101781.84;;;30.51;72.51
59757;BME280;45631;51.962;5.974;2023-09-07T10:26:57;101781.84;;;30.44;74.37
59757;BME280;45631;51.962;5.974;2023-09-07T10:29:26;101781.63;;;30.39;73.18
59757;BME280;45631;51.962;5.974;2023-09-07T10:31:55;101770.78;;;30.52;74.90
59757;BME280;45631;51.962;5.974;2023-09-07T10:34:35;101768.56;;;31.08;73.52
59757;BME280;45631;51.962;5.974;2023-09-07T10:37:06;101768.22;;;31.43;68.40
59757;BME280;45631;51.962;5.974;2023-09-07T10:39:38;101764.81;;;31.48;68.23
59757;BME280;45631;51.962;5.974;2023-09-07T10:42:20;101759.50;;;31.98;69.04
59757;BME280;45631;51.962;5.974;2023-09-07T10:44:48;101761.13;;;32.06;65.40
59757;BME280;45631;51.962;5.974;2023-09-07T10:47:17;101758.09;;;32.21;64.63
59757;BME280;45631;51.962;5.974;2023-09-07T10:49:47;101757.91;;;32.41;61.92
59757;BME280;45631;51.962;5.974;2023-09-07T10:52:16;101760.72;;;32.53;60.37
59757;BME280;45631;51.962;5.974;2023-09-07T10:54:45;101753.09;;;32.62;60.00
59757;BME280;45631;51.962;5.974;2023-09-07T10:57:23;101757.75;;;32.80;59.98
59757;BME280;45631;51.962;5.974;2023-09-07T10:59:52;101754.38;;;32.59;59.80
59757;BME280;45631;51.962;5.974;2023-09-07T11:02:22;101755.91;;;32.74;58.71
59757;BME280;45631;51.962;5.974;2023-09-07T11:04:52;101750.84;;;32.77;59.23
59757;BME280;45631;51.962;5.974;2023-09-07T11:07:21;101747.50;;;33.12;56.06
59757;BME280;45631;51.962;5.974;2023-09-07T11:09:51;101745.44;;;33.45;57.88
59757;BME280;45631;51.962;5.974;2023-09-07T11:12:20;101753.72;;;33.50;56.58
59757;BME280;45631;51.962;5.974;2023-09-07T11:14:49;101751.59;;;33.82;58.51
59757;BME280;45631;51.962;5.974;2023-09-07T11:17:19;101750.22;;;33.73;55.76
59757;BME280;45631;51.962;5.974;2023-09-07T11:19:55;101741.41;;;33.90;53.84
59757;BME280;45631;51.962;5.974;2023-09-07T11:22:24;101736.47;;;33.68;54.47
59757;BME280;45631;51.962;5.974;2023-09-07T11:24:52;101734.78;;;33.55;54.24
59757;BME280;45631;51.962;5.974;2023-09-07T11:27:21;101743.16;;;33.84;55.88
59757;BME280;45631;51.962;5.974;2023-09-07T11:29:51;101739.66;;;33.95;54.24
59757;BME280;45631;51.962;5.974;2023-09-07T11:32:20;101738.44;;;34.03;55.15
59757;BME280;45631;51.962;5.974;2023-09-07T11:34:50;101735.53;;;34.40;54.35
59757;BME280;45631;51.962;5.974;2023-09-07T11:37:25;101735.13;;;34.72;52.77
59757;BME280;45631;51.962;5.974;2023-09-07T11:39:54;101724.34;;;34.53;51.69
59757;BME280;45631;51.962;5.974;2023-09-07T11:42:22;101724.06;;;34.91;51.67
59757;BME280;45631;51.962;5.974;2023-09-07T11:44:51;101724.47;;;35.11;51.83
59757;BME280;45631;51.962;5.974;2023-09-07T11:47:19;101720.47;;;34.90;49.81
59757;BME280;45631;51.962;5.974;2023-09-07T11:49:48;101722.53;;;34.83;49.88
59757;BME280;45631;51.962;5.974;2023-09-07T11:52:18;101713.22;;;34.96;47.98
59757;BME280;45631;51.962;5.974;2023-09-07T11:54:48;101722.66;;;35.17;48.74
59757;BME280;45631;51.962;5.974;2023-09-07T11:57:16;101714.84;;;35.54;48.77
59757;BME280;45631;51.962;5.974;2023-09-07T11:59:45;101717.13;;;35.58;49.67
59757;BME280;45631;51.962;5.974;2023-09-07T12:02:25;101715.38;;;35.68;48.64
59757;BME280;45631;51.962;5.974;2023-09-07T12:04:54;101716.28;;;35.57;47.52
59757;BME280;45631;51.962;5.974;2023-09-07T12:07:23;101709.56;;;35.65;45.66
59757;BME280;45631;51.962;5.974;2023-09-07T12:09:53;101709.59;;;35.99;45.82
59757;BME280;45631;51.962;5.974;2023-09-07T12:12:24;101707.19;;;36.02;47.45
59757;BME280;45631;51.962;5.974;2023-09-07T12:14:52;101696.41;;;35.96;44.23
59757;BME280;45631;51.962;5.974;2023-09-07T12:17:23;101694.09;;;36.44;46.78
59757;BME280;45631;51.962;5.974;2023-09-07T12:19:51;101694.88;;;36.22;45.55
59757;BME280;45631;51.962;5.974;2023-09-07T12:22:20;101697.81;;;36.54;43.85
59757;BME280;45631;51.962;5.974;2023-09-07T12:24:49;101692.84;;;36.51;44.47
59757;BME280;45631;51.962;5.974;2023-09-07T12:27:39;101690.97;;;36.79;43.56
59757;BME280;45631;51.962;5.974;2023-09-07T12:30:20;101691.22;;;36.78;43.62
59757;BME280;45631;51.962;5.974;2023-09-07T12:32:51;101696.22;;;36.81;43.61
59757;BME280;45631;51.962;5.974;2023-09-07T12:35:20;101681.03;;;36.95;41.90
59757;BME280;45631;51.962;5.974;2023-09-07T12:37:49;101690.28;;;37.16;41.95
59757;BME280;45631;51.962;5.974;2023-09-07T12:40:17;101682.25;;;36.82;43.86
59757;BME280;45631;51.962;5.974;2023-09-07T12:42:47;101684.88;;;36.94;42.79
59757;BME280;45631;51.962;5.974;2023-09-07T12:45:15;101685.06;;;36.87;45.19
59757;BME280;45631;51.962;5.974;2023-09-07T12:47:44;101681.84;;;36.96;42.51
59757;BME280;45631;51.962;5.974;2023-09-07T12:50:13;101688.47;;;37.00;43.73
59757;BME280;45631;51.962;5.974;2023-09-07T12:52:41;101691.34;;;37.10;41.39
59757;BME280;45631;51.962;5.974;2023-09-07T12:55:10;101684.94;;;37.04;39.96